Sprague, Nebraska
Current Conditions -  °F | °C
As of 6:54 PM on Friday 19 Dec 2014 (Local Time) from KLNK Reporting Station
Overcast Overcast  
Wind Chill: 27°   Ceiling: 1400
Heat Index: 34°   Visibility: 7mi
Dew Point: 29°   Wind: 9mph
Humidity: 82%   Direction: 170°S
Pressure: 30.15"   Gusts: NA
Location:  40.63°N, 96.74°W
Report Text: KLNK 200054Z 17008KT 7SM OVC014 01/M02 A3015 RMK AO2 SLP220 T00111017
Loading
Personal Weather Stations






























Interactive Weather Map New forecast layout! Learn more

10-Day Weather Forecast

Advertisements
Track Severe Weather on mobile